createdAt,value
2022-11-17T00:00:35.811Z,14.40
2022-11-17T00:03:03.844Z,18.50
2022-11-17T00:05:31.904Z,17.00
2022-11-17T00:07:59.953Z,14.00
2022-11-17T00:10:28.021Z,16.00
2022-11-17T00:13:15.032Z,11.80
2022-11-17T00:15:44.583Z,16.60
2022-11-17T00:18:30.172Z,17.00
2022-11-17T00:21:15.706Z,20.40
2022-11-17T00:23:50.040Z,20.00
2022-11-17T00:26:19.612Z,12.00
2022-11-17T00:28:49.009Z,14.75
2022-11-17T00:31:34.506Z,16.00
2022-11-17T00:34:08.384Z,16.60
2022-11-17T00:36:38.818Z,14.40
2022-11-17T00:39:07.005Z,15.00
2022-11-17T00:41:35.065Z,12.60
2022-11-17T00:44:04.451Z,17.00
2022-11-17T00:46:32.619Z,18.50
2022-11-17T00:49:00.650Z,14.80
2022-11-17T00:51:28.709Z,12.75
2022-11-17T00:53:56.729Z,18.20
2022-11-17T00:56:25.613Z,14.00
2022-11-17T00:58:53.675Z,14.00
2022-11-17T01:01:23.275Z,16.00
2022-11-17T01:03:51.334Z,17.50
2022-11-17T01:06:20.424Z,19.40
2022-11-17T01:08:48.555Z,16.25
2022-11-17T01:11:17.397Z,19.00
2022-11-17T01:13:45.873Z,19.60
2022-11-17T01:16:15.355Z,21.00
2022-11-17T01:18:45.082Z,18.20
2022-11-17T01:21:14.347Z,14.00
2022-11-17T01:23:43.964Z,21.20
2022-11-17T01:26:13.209Z,22.60
2022-11-17T01:28:41.243Z,16.60
2022-11-17T01:31:10.772Z,21.00
2022-11-17T01:33:38.903Z,17.00
2022-11-17T01:36:09.855Z,14.00
2022-11-17T01:38:37.884Z,16.60
2022-11-17T01:41:09.277Z,18.50
2022-11-17T01:43:42.025Z,16.40
2022-11-17T01:46:19.736Z,16.00
2022-11-17T01:48:47.780Z,11.20
2022-11-17T01:51:17.193Z,21.80
2022-11-17T01:53:47.133Z,17.50
2022-11-17T01:56:18.711Z,18.00
2022-11-17T01:58:49.194Z,12.00
2022-11-17T02:01:17.303Z,17.00
2022-11-17T02:03:45.498Z,20.25
2022-11-17T02:06:16.933Z,16.00
2022-11-17T02:08:45.479Z,14.80
2022-11-17T02:11:15.325Z,16.75
2022-11-17T02:13:43.370Z,16.00
2022-11-17T02:16:12.758Z,13.60
2022-11-17T02:18:40.791Z,13.00
2022-11-17T02:21:37.565Z,12.40
2022-11-17T02:24:13.960Z,13.00
2022-11-17T02:26:59.030Z,14.80
2022-11-17T02:29:30.443Z,21.00
2022-11-17T02:32:04.954Z,13.00
2022-11-17T02:34:36.565Z,18.00
2022-11-17T02:37:12.874Z,16.60
2022-11-17T02:39:42.897Z,16.00
2022-11-17T02:42:12.492Z,19.80
2022-11-17T02:44:42.026Z,13.00
2022-11-17T02:47:11.534Z,12.00
2022-11-17T02:49:40.452Z,19.20
2022-11-17T02:52:08.497Z,21.50
2022-11-17T02:54:36.577Z,11.25
2022-11-17T02:57:04.692Z,20.00
2022-11-17T02:59:34.297Z,11.00
2022-11-17T03:02:18.374Z,9.00
2022-11-17T03:04:49.991Z,14.20
2022-11-17T03:07:26.945Z,13.00
2022-11-17T03:09:59.250Z,12.00
2022-11-17T03:12:30.246Z,13.00
2022-11-17T03:15:02.749Z,15.40
2022-11-17T03:17:33.698Z,13.40
2022-11-17T03:20:04.717Z,16.00
2022-11-17T03:22:34.749Z,18.00
2022-11-17T03:25:03.934Z,22.25
2022-11-17T03:27:33.080Z,18.00
2022-11-17T03:30:01.888Z,16.60
2022-11-17T03:32:31.499Z,15.75
2022-11-17T03:35:02.516Z,13.40
2022-11-17T03:37:31.843Z,14.00
2022-11-17T03:40:00.833Z,15.60
2022-11-17T03:42:29.379Z,16.25
2022-11-17T03:44:59.432Z,11.00
2022-11-17T03:47:27.937Z,18.00
2022-11-17T03:49:57.587Z,12.80
2022-11-17T03:52:27.001Z,12.40
2022-11-17T03:54:55.090Z,12.00
2022-11-17T03:57:27.046Z,13.40
2022-11-17T03:59:56.924Z,13.00
2022-11-17T04:02:25.529Z,18.00
2022-11-17T04:05:08.716Z,17.00
2022-11-17T04:07:40.179Z,18.80
2022-11-17T04:10:09.559Z,20.00
2022-11-17T04:12:55.202Z,15.00
2022-11-17T04:15:40.871Z,18.00
2022-11-17T04:18:08.918Z,16.00
2022-11-17T04:20:37.030Z,20.00
2022-11-17T04:23:11.318Z,20.40
2022-11-17T04:25:57.449Z,18.60
2022-11-17T04:28:40.766Z,15.00
2022-11-17T04:31:10.987Z,15.60
2022-11-17T04:33:39.774Z,16.50
2022-11-17T04:36:08.269Z,16.00
2022-11-17T04:38:37.665Z,18.80
2022-11-17T04:41:24.154Z,12.00
2022-11-17T04:43:52.200Z,16.00
2022-11-17T04:46:20.385Z,22.00
2022-11-17T04:48:48.706Z,16.50
2022-11-17T04:51:16.892Z,15.50
2022-11-17T04:53:46.398Z,15.20
2022-11-17T04:56:14.529Z,12.50
2022-11-17T04:58:42.580Z,20.80
2022-11-17T05:01:13.551Z,17.25
2022-11-17T05:03:42.558Z,17.25
2022-11-17T05:06:10.751Z,14.00
2022-11-17T05:08:38.910Z,24.20
2022-11-17T05:11:26.463Z,20.50
2022-11-17T05:13:54.628Z,22.50
2022-11-17T05:16:40.543Z,14.80
2022-11-17T05:19:09.606Z,21.50
2022-11-17T05:21:37.666Z,18.40
2022-11-17T05:24:04.991Z,17.33
2022-11-17T05:26:35.183Z,14.50
2022-11-17T05:29:03.914Z,20.00
2022-11-17T05:31:32.107Z,12.20
2022-11-17T05:34:00.370Z,19.40
2022-11-17T05:36:28.940Z,18.25
2022-11-17T05:38:57.047Z,17.80
2022-11-17T05:41:25.179Z,18.00
2022-11-17T05:43:54.566Z,13.00
2022-11-17T05:46:22.742Z,16.60
2022-11-17T05:48:51.176Z,15.60
2022-11-17T05:51:19.282Z,20.40
2022-11-17T05:53:47.472Z,14.00
2022-11-17T05:56:24.551Z,14.80
2022-11-17T05:58:55.831Z,15.20
2022-11-17T06:01:23.888Z,22.40
2022-11-17T06:03:54.299Z,21.00
2022-11-17T06:06:22.403Z,17.40
2022-11-17T06:08:50.445Z,18.40
2022-11-17T06:11:19.460Z,21.00
2022-11-17T06:13:47.482Z,19.00
2022-11-17T06:16:17.938Z,22.50
2022-11-17T06:18:47.722Z,14.40
2022-11-17T06:21:16.503Z,18.40
2022-11-17T06:23:44.543Z,18.00
2022-11-17T06:26:12.593Z,18.40
2022-11-17T06:28:41.194Z,21.00
2022-11-17T06:31:09.264Z,17.40
2022-11-17T06:33:38.803Z,18.00
2022-11-17T06:36:07.801Z,22.40
2022-11-17T06:38:36.441Z,21.00
2022-11-17T06:41:08.954Z,22.00
2022-11-17T06:43:39.634Z,22.00
2022-11-17T06:46:07.653Z,26.67
2022-11-17T06:48:36.735Z,22.40
2022-11-17T06:51:06.858Z,19.00
2022-11-17T06:53:35.522Z,24.00
2022-11-17T06:56:06.380Z,22.25
2022-11-17T06:58:34.699Z,29.00
2022-11-17T07:01:04.081Z,22.00
2022-11-17T07:03:32.254Z,21.60
2022-11-17T07:06:01.374Z,20.20
2022-11-17T07:08:30.805Z,27.00
2022-11-17T07:11:03.120Z,22.00
2022-11-17T07:13:31.941Z,24.75
2022-11-17T07:16:03.887Z,22.00
2022-11-17T07:18:31.956Z,27.50
2022-11-17T07:21:02.845Z,27.25
2022-11-17T07:23:32.232Z,29.00
2022-11-17T07:26:00.348Z,18.00
2022-11-17T07:28:28.470Z,22.40
2022-11-17T07:30:56.532Z,24.67
2022-11-17T07:33:24.586Z,22.60
2022-11-17T07:35:52.618Z,35.00
2022-11-17T07:38:20.692Z,21.60
2022-11-17T07:40:50.079Z,24.00
2022-11-17T07:43:18.130Z,25.00
2022-11-17T07:45:46.200Z,19.75
2022-11-17T07:48:14.257Z,22.00
2022-11-17T07:50:42.273Z,24.20
2022-11-17T07:53:10.321Z,26.00
2022-11-17T07:55:38.354Z,27.60
2022-11-17T07:58:07.765Z,26.00
2022-11-17T08:00:35.835Z,18.00
2022-11-17T08:03:04.659Z,32.80
2022-11-17T08:05:34.791Z,29.00
2022-11-17T08:08:05.402Z,27.80
2022-11-17T08:10:34.319Z,22.75
2022-11-17T08:13:02.397Z,19.20
2022-11-17T08:15:31.891Z,23.00
2022-11-17T08:18:01.039Z,24.00
2022-11-17T08:20:29.784Z,19.75
2022-11-17T08:22:57.928Z,22.60
2022-11-17T08:25:26.990Z,22.80
2022-11-17T08:27:56.224Z,29.00
2022-11-17T08:30:24.338Z,23.00
2022-11-17T08:32:54.720Z,26.20
2022-11-17T08:35:23.520Z,21.60
2022-11-17T08:37:51.592Z,28.00
2022-11-17T08:40:19.725Z,32.40
2022-11-17T08:42:47.834Z,27.00
2022-11-17T08:45:15.866Z,25.50
2022-11-17T08:47:43.921Z,25.00
2022-11-17T08:50:13.313Z,23.80
2022-11-17T08:52:41.377Z,24.00
2022-11-17T08:55:10.236Z,26.25
2022-11-17T08:57:38.719Z,21.80
2022-11-17T09:00:07.809Z,36.00
2022-11-17T09:02:35.867Z,30.00
2022-11-17T09:05:03.931Z,24.00
2022-11-17T09:07:35.714Z,27.25
2022-11-17T09:10:04.668Z,23.75
2022-11-17T09:12:32.800Z,32.00
2022-11-17T09:15:00.850Z,26.00
2022-11-17T09:17:28.943Z,27.75
2022-11-17T09:19:56.970Z,22.00
2022-11-17T09:22:25.027Z,22.50
2022-11-17T09:24:54.502Z,28.25
2022-11-17T09:27:22.559Z,25.00
2022-11-17T09:29:50.610Z,29.60
2022-11-17T09:32:19.522Z,29.50
2022-11-17T09:34:47.600Z,29.75
2022-11-17T09:37:15.679Z,23.00
2022-11-17T09:39:44.079Z,27.25
2022-11-17T09:42:15.265Z,28.50
2022-11-17T09:44:45.273Z,25.50
2022-11-17T09:47:20.418Z,25.80
2022-11-17T09:49:58.389Z,27.25
2022-11-17T09:52:28.945Z,25.50
2022-11-17T09:54:58.041Z,32.00
2022-11-17T09:57:31.111Z,34.00
2022-11-17T10:00:08.820Z,22.00
2022-11-17T10:02:36.981Z,23.80
2022-11-17T10:05:05.295Z,28.40
2022-11-17T10:07:33.437Z,23.00
2022-11-17T10:10:02.320Z,19.50
2022-11-17T10:12:34.740Z,23.00
2022-11-17T10:15:10.390Z,21.25
2022-11-17T10:17:39.489Z,21.00
2022-11-17T10:20:16.010Z,28.25
2022-11-17T10:22:44.064Z,25.50
2022-11-17T10:25:25.129Z,26.00
2022-11-17T10:27:54.987Z,26.20
2022-11-17T10:30:24.074Z,26.50
2022-11-17T10:32:52.915Z,20.20
2022-11-17T10:35:21.950Z,25.40
2022-11-17T10:37:55.522Z,24.00
2022-11-17T10:40:25.950Z,25.40
2022-11-17T10:43:21.375Z,33.00
2022-11-17T10:45:50.922Z,26.50
2022-11-17T10:48:24.439Z,33.25
2022-11-17T10:50:53.968Z,20.80
2022-11-17T10:53:24.746Z,26.60
2022-11-17T10:55:57.279Z,27.80
2022-11-17T10:58:27.783Z,30.50
2022-11-17T11:00:57.161Z,28.50
2022-11-17T11:03:25.936Z,23.50
2022-11-17T11:05:58.368Z,25.75
2022-11-17T11:08:27.325Z,36.60
2022-11-17T11:10:55.351Z,20.00
2022-11-17T11:13:29.569Z,26.50
2022-11-17T11:15:57.606Z,24.40
2022-11-17T11:18:25.746Z,24.00
2022-11-17T11:20:59.513Z,22.00
2022-11-17T11:23:36.970Z,24.25
2022-11-17T11:26:12.791Z,22.00
2022-11-17T11:28:51.309Z,20.40
2022-11-17T11:31:25.484Z,30.00
2022-11-17T11:33:56.219Z,25.75
2022-11-17T11:36:27.799Z,26.00
2022-11-17T11:38:59.092Z,24.00
2022-11-17T11:41:37.888Z,24.00
2022-11-17T11:44:23.982Z,24.80
2022-11-17T11:46:54.427Z,20.80
2022-11-17T11:49:28.108Z,18.00
2022-11-17T11:51:56.137Z,18.50
2022-11-17T11:54:28.798Z,24.50
2022-11-17T11:56:56.835Z,19.00
2022-11-17T11:59:32.027Z,24.25
2022-11-17T12:02:05.329Z,17.40
2022-11-17T12:04:38.822Z,21.20
2022-11-17T12:07:11.222Z,19.75
2022-11-17T12:09:45.669Z,20.00
2022-11-17T12:12:15.777Z,22.50
2022-11-17T12:15:09.078Z,18.00
2022-11-17T12:17:37.249Z,19.60
2022-11-17T12:20:10.881Z,19.60
2022-11-17T12:22:57.016Z,19.40
2022-11-17T12:25:27.778Z,19.00
2022-11-17T12:27:55.847Z,25.20
2022-11-17T12:30:53.941Z,22.80
2022-11-17T12:33:22.072Z,23.75
2022-11-17T12:36:18.109Z,26.00
2022-11-17T12:38:46.688Z,29.20
2022-11-17T12:41:14.727Z,25.80
2022-11-17T12:43:43.033Z,22.50
2022-11-17T12:46:30.532Z,30.00
2022-11-17T12:49:02.130Z,22.00
2022-11-17T12:51:34.384Z,23.00
2022-11-17T12:54:07.446Z,19.40
2022-11-17T12:56:54.324Z,25.00
2022-11-17T12:59:42.120Z,27.00
2022-11-17T13:02:19.741Z,29.60
2022-11-17T13:04:49.822Z,26.50
2022-11-17T13:07:20.411Z,24.50
2022-11-17T13:09:51.204Z,22.20
2022-11-17T13:12:22.714Z,23.60
2022-11-17T13:14:54.924Z,22.40
2022-11-17T13:17:27.488Z,27.00
2022-11-17T13:20:02.695Z,23.00
2022-11-17T13:22:30.722Z,22.00
2022-11-17T13:24:58.940Z,33.40
2022-11-17T13:27:27.741Z,24.50
2022-11-17T13:30:14.155Z,25.00
2022-11-17T13:32:43.609Z,22.00
2022-11-17T13:35:22.135Z,26.00
2022-11-17T13:38:06.725Z,29.20
2022-11-17T13:40:35.229Z,18.00
2022-11-17T13:43:03.650Z,26.60
2022-11-17T13:45:31.665Z,28.20
2022-11-17T13:48:01.069Z,27.00
2022-11-17T13:50:37.631Z,24.00
2022-11-17T13:53:23.516Z,29.40
2022-11-17T13:55:51.758Z,19.60
2022-11-17T13:58:27.165Z,24.75
2022-11-17T14:00:57.074Z,25.20
2022-11-17T14:03:37.358Z,20.40
2022-11-17T14:06:06.668Z,22.75
2022-11-17T14:08:35.022Z,19.00
2022-11-17T14:11:07.910Z,21.25
2022-11-17T14:13:39.302Z,32.00
2022-11-17T14:16:16.858Z,22.00
2022-11-17T14:18:53.529Z,18.60
2022-11-17T14:21:21.620Z,27.20
2022-11-17T14:23:49.661Z,19.00
2022-11-17T14:26:19.815Z,19.00
2022-11-17T14:28:48.970Z,20.00
2022-11-17T14:31:16.984Z,17.75
2022-11-17T14:33:46.500Z,19.00
2022-11-17T14:36:15.804Z,21.00
2022-11-17T14:38:44.115Z,14.50
2022-11-17T14:41:12.130Z,24.40
2022-11-17T14:43:40.175Z,23.00
2022-11-17T14:46:08.241Z,22.00
2022-11-17T14:48:36.282Z,18.00
2022-11-17T14:51:05.823Z,17.00
2022-11-17T14:53:36.773Z,21.00
2022-11-17T14:56:08.754Z,22.40
2022-11-17T14:58:36.801Z,26.75
2022-11-17T15:01:11.606Z,23.60
2022-11-17T15:03:39.686Z,21.00
2022-11-17T15:06:12.114Z,18.20
2022-11-17T15:08:44.117Z,28.00
2022-11-17T15:11:15.285Z,24.40
2022-11-17T15:13:43.350Z,19.50
2022-11-17T15:16:11.417Z,21.00
2022-11-17T15:18:39.454Z,25.00
2022-11-17T15:21:09.534Z,20.60
2022-11-17T15:23:38.330Z,19.00
2022-11-17T15:26:06.789Z,23.00
2022-11-17T15:28:35.115Z,21.00
2022-11-17T15:31:09.627Z,27.40
2022-11-17T15:33:39.472Z,23.00
2022-11-17T15:36:09.822Z,28.20
2022-11-17T15:38:38.060Z,25.40
2022-11-17T15:41:06.566Z,22.00
2022-11-17T15:43:35.967Z,28.75
2022-11-17T15:46:04.255Z,28.40
2022-11-17T15:48:33.040Z,24.20
2022-11-17T15:51:02.995Z,22.40
2022-11-17T15:53:32.909Z,25.20
2022-11-17T15:56:04.837Z,39.60
2022-11-17T15:58:33.099Z,30.25
2022-11-17T16:01:11.709Z,25.25
2022-11-17T16:03:40.092Z,32.40
2022-11-17T16:06:08.427Z,32.80
2022-11-17T16:08:37.934Z,27.25
2022-11-17T16:11:06.257Z,35.50
2022-11-17T16:13:34.489Z,33.50
2022-11-17T16:16:02.524Z,27.40
2022-11-17T16:18:30.780Z,26.75
2022-11-17T16:21:04.887Z,25.20
2022-11-17T16:23:39.301Z,27.25
2022-11-17T16:26:07.324Z,23.00
2022-11-17T16:28:35.395Z,31.50
2022-11-17T16:31:13.363Z,24.00
2022-11-17T16:33:41.401Z,24.00
2022-11-17T16:36:10.206Z,22.00
2022-11-17T16:38:49.775Z,34.50
2022-11-17T16:41:28.618Z,37.00
2022-11-17T16:43:56.810Z,31.25
2022-11-17T16:46:26.133Z,23.00
2022-11-17T16:48:54.937Z,38.50
2022-11-17T16:51:23.178Z,31.25
2022-11-17T16:53:56.005Z,27.50
2022-11-17T16:56:24.030Z,53.75
2022-11-17T16:58:52.149Z,29.80
2022-11-17T17:01:21.410Z,31.60
2022-11-17T17:03:49.486Z,34.40
2022-11-17T17:06:18.629Z,30.20
2022-11-17T17:08:46.675Z,31.20
2022-11-17T17:11:16.527Z,41.00
2022-11-17T17:13:44.564Z,32.00
2022-11-17T17:16:13.711Z,37.80
2022-11-17T17:18:41.808Z,21.40
2022-11-17T17:21:12.904Z,28.00
2022-11-17T17:23:40.959Z,35.40
2022-11-17T17:26:09.744Z,31.50
2022-11-17T17:28:40.581Z,28.00
2022-11-17T17:31:08.732Z,39.00
2022-11-17T17:33:37.394Z,35.00
2022-11-17T17:36:06.166Z,31.50
2022-11-17T17:38:34.211Z,37.75
2022-11-17T17:41:06.191Z,30.00
2022-11-17T17:43:34.278Z,35.20
2022-11-17T17:46:03.686Z,33.25
2022-11-17T17:48:31.774Z,32.00
2022-11-17T17:51:02.326Z,44.00
2022-11-17T17:53:30.472Z,37.00
2022-11-17T17:56:01.558Z,37.00
2022-11-17T17:58:29.612Z,33.00
2022-11-17T18:00:57.727Z,33.75
2022-11-17T18:03:27.127Z,45.50
2022-11-17T18:05:59.929Z,34.20
2022-11-17T18:08:27.952Z,38.75
2022-11-17T18:11:00.121Z,31.75
2022-11-17T18:13:31.293Z,32.80
2022-11-17T18:15:59.590Z,39.50
2022-11-17T18:18:29.180Z,38.20
2022-11-17T18:21:00.860Z,41.80
2022-11-17T18:23:30.062Z,36.00
2022-11-17T18:25:58.386Z,38.25
2022-11-17T18:28:26.524Z,37.00
2022-11-17T18:30:54.560Z,40.50
2022-11-17T18:33:22.580Z,40.50
2022-11-17T18:35:51.972Z,64.00
2022-11-17T18:38:19.986Z,30.50
2022-11-17T18:40:48.169Z,35.80
2022-11-17T18:43:16.195Z,35.20
2022-11-17T18:45:44.239Z,38.25
2022-11-17T18:48:12.250Z,41.00
2022-11-17T18:51:04.906Z,32.67
2022-11-17T18:53:31.258Z,31.25
2022-11-17T18:56:03.569Z,32.00
2022-11-17T18:58:31.658Z,28.40
2022-11-17T19:01:06.507Z,27.60
2022-11-17T19:03:34.618Z,33.67
2022-11-17T19:06:02.868Z,29.50
2022-11-17T19:08:32.436Z,38.75
2022-11-17T19:11:05.690Z,32.25
2022-11-17T19:13:34.813Z,33.50
2022-11-17T19:16:05.397Z,33.75
2022-11-17T19:18:33.421Z,32.80
2022-11-17T19:21:05.990Z,36.00
2022-11-17T19:23:36.142Z,30.75
2022-11-17T19:26:05.345Z,30.25
2022-11-17T19:28:33.389Z,33.00
2022-11-17T19:31:02.890Z,28.80
2022-11-17T19:33:32.053Z,26.20
2022-11-17T19:36:04.089Z,31.20
2022-11-17T19:38:33.880Z,27.00
2022-11-17T19:41:06.730Z,27.60
2022-11-17T19:43:35.517Z,22.00
2022-11-17T19:46:06.866Z,37.20
2022-11-17T19:48:34.949Z,33.00
2022-11-17T19:51:05.318Z,30.75
2022-11-17T19:53:33.338Z,29.20
2022-11-17T19:56:01.402Z,37.00
2022-11-17T19:58:30.770Z,31.25
2022-11-17T20:00:59.074Z,30.00
2022-11-17T20:03:27.141Z,31.20
2022-11-17T20:05:55.205Z,30.20
2022-11-17T20:08:23.227Z,26.80
2022-11-17T20:10:51.273Z,36.50
2022-11-17T20:13:19.294Z,36.00
2022-11-17T20:15:48.940Z,36.50
2022-11-17T20:18:16.994Z,36.00
2022-11-17T20:20:45.345Z,29.20
2022-11-17T20:23:13.363Z,40.00
2022-11-17T20:25:41.408Z,36.00
2022-11-17T20:28:09.578Z,38.00
2022-11-17T20:30:38.328Z,44.00
2022-11-17T20:33:07.720Z,30.40
2022-11-17T20:35:36.042Z,33.40
2022-11-17T20:38:04.062Z,33.50
2022-11-17T20:40:32.297Z,34.00
2022-11-17T20:43:00.322Z,31.75
2022-11-17T20:45:28.370Z,33.20
2022-11-17T20:47:56.385Z,26.80
2022-11-17T20:50:25.787Z,38.40
2022-11-17T20:52:53.799Z,28.80
2022-11-17T20:55:21.835Z,30.75
2022-11-17T20:57:49.891Z,26.50
2022-11-17T21:00:18.628Z,30.50
2022-11-17T21:02:46.643Z,34.25
2022-11-17T21:05:14.806Z,33.20
2022-11-17T21:07:44.195Z,39.00
2022-11-17T21:10:12.294Z,44.00
2022-11-17T21:12:40.330Z,37.25
2022-11-17T21:15:09.137Z,39.80
2022-11-17T21:17:54.699Z,34.75
2022-11-17T21:20:22.753Z,36.75
2022-11-17T21:22:52.162Z,32.40
2022-11-17T21:25:20.508Z,40.60
2022-11-17T21:27:48.517Z,34.60
2022-11-17T21:30:17.079Z,40.60
2022-11-17T21:32:45.093Z,40.80
2022-11-17T21:35:13.130Z,32.40
2022-11-17T21:37:41.137Z,34.20
2022-11-17T21:40:11.493Z,38.60
2022-11-17T21:42:39.605Z,36.80
2022-11-17T21:45:09.099Z,37.67
2022-11-17T21:47:37.109Z,34.20
2022-11-17T21:50:05.773Z,45.00
2022-11-17T21:52:33.811Z,47.25
2022-11-17T21:55:01.854Z,54.50
2022-11-17T21:57:31.234Z,50.40
2022-11-17T21:59:59.292Z,35.40
2022-11-17T22:02:27.315Z,47.50
2022-11-17T22:04:55.374Z,51.00
2022-11-17T22:07:23.451Z,41.00
2022-11-17T22:09:51.547Z,58.00
2022-11-17T22:12:19.562Z,74.75
2022-11-17T22:14:49.269Z,50.75
2022-11-17T22:17:17.912Z,35.25
2022-11-17T22:19:45.963Z,58.20
2022-11-17T22:22:14.420Z,71.00
2022-11-17T22:24:46.886Z,53.00
2022-11-17T22:27:17.550Z,54.25
2022-11-17T22:29:45.592Z,53.60
2022-11-17T22:32:14.962Z,56.25
2022-11-17T22:34:42.982Z,60.00
2022-11-17T22:37:11.007Z,44.40
2022-11-17T22:39:39.421Z,50.00
2022-11-17T22:42:07.456Z,49.60
2022-11-17T22:44:35.496Z,34.80
2022-11-17T22:47:03.505Z,40.50
2022-11-17T22:49:32.901Z,39.80
2022-11-17T22:52:08.254Z,43.50
2022-11-17T22:54:36.442Z,41.50
2022-11-17T22:57:04.506Z,35.00
2022-11-17T22:59:32.558Z,42.20
2022-11-17T23:02:00.574Z,38.00
2022-11-17T23:04:28.737Z,44.00
2022-11-17T23:06:58.159Z,43.00
2022-11-17T23:09:26.242Z,47.00
2022-11-17T23:11:54.249Z,46.60
2022-11-17T23:14:22.282Z,48.25
2022-11-17T23:16:50.324Z,47.00
2022-11-17T23:19:18.521Z,37.40
2022-11-17T23:21:46.687Z,44.75
2022-11-17T23:24:16.053Z,38.00
2022-11-17T23:26:44.095Z,46.25
2022-11-17T23:29:12.132Z,38.75
2022-11-17T23:31:40.229Z,43.50
2022-11-17T23:34:09.681Z,43.00
2022-11-17T23:36:37.721Z,46.40
2022-11-17T23:39:05.736Z,48.00
2022-11-17T23:41:35.120Z,43.00
2022-11-17T23:44:03.342Z,54.50
2022-11-17T23:46:31.382Z,36.40
2022-11-17T23:48:59.383Z,47.80
2022-11-17T23:51:29.835Z,40.00
2022-11-17T23:53:58.943Z,42.75
2022-11-17T23:56:27.036Z,46.00
2022-11-17T23:58:56.565Z,41.00
